Time;durP1;ratioP1;P1;durP2;ratioP2;P2;SDS_P1;SDS_P2;PMS_P1;PMS_P2;Temp;Humidity;BMP_temperature;BMP_pressure;BME280_temperature;BME280_humidity;BME280_pressure;Samples;Min_cycle;Max_cycle;Signal;HPM_P1;HPM_P2
2023/04/08 00:01:11;;;;;;;18.70;14.30;;;;;;;12.47;56.90;100896.92;108667;1253;59441;-46
2023/04/08 00:03:40;;;;;;;21.00;14.80;;;;;;;12.51;56.84;100901.38;108634;1253;58872;-46
2023/04/08 00:06:09;;;;;;;19.70;14.10;;;;;;;12.53;56.75;100901.77;105625;1253;66770;-45
2023/04/08 00:08:40;;;;;;;22.00;13.10;;;;;;;12.51;56.64;100902.23;108592;1256;62342;-46
2023/04/08 00:11:09;;;;;;;22.90;14.10;;;;;;;12.47;56.65;100902.53;108599;1253;63717;-46
2023/04/08 00:13:38;;;;;;;18.40;14.40;;;;;;;12.47;56.68;100903.64;108254;1254;59974;-46
2023/04/08 00:16:07;;;;;;;19.10;13.50;;;;;;;12.45;56.72;100902.20;108685;1253;58868;-46
2023/04/08 00:18:37;;;;;;;19.50;13.70;;;;;;;12.43;56.84;100904.13;107937;1254;65442;-45
2023/04/08 00:21:09;;;;;;;18.70;13.00;;;;;;;12.42;57.02;100904.91;105244;1254;62467;-45
2023/04/08 00:23:38;;;;;;;18.40;13.10;;;;;;;12.46;56.87;100906.37;108543;1253;65376;-45
2023/04/08 00:26:06;;;;;;;18.50;13.80;;;;;;;12.48;56.86;100906.52;107948;1254;60058;-46
2023/04/08 00:28:37;;;;;;;20.90;14.70;;;;;;;12.44;57.08;100903.97;105304;1256;61124;-45
2023/04/08 00:31:06;;;;;;;20.80;14.10;;;;;;;12.46;57.11;100902.79;108605;1256;64612;-46
2023/04/08 00:33:35;;;;;;;18.80;13.50;;;;;;;12.53;56.95;100904.61;108601;1252;63070;-46
2023/04/08 00:36:03;;;;;;;19.50;13.00;;;;;;;12.55;57.00;100903.89;108618;1254;65308;-45
2023/04/08 00:38:31;;;;;;;19.20;13.30;;;;;;;12.54;57.05;100900.29;108532;1254;59971;-45
2023/04/08 00:40:59;;;;;;;18.20;12.90;;;;;;;12.52;57.31;100899.05;108658;1252;58770;-45
2023/04/08 00:43:28;;;;;;;19.90;13.60;;;;;;;12.51;57.47;100898.94;108668;1253;66090;-45
2023/04/08 00:45:56;;;;;;;17.40;12.10;;;;;;;12.50;57.76;100902.00;108691;1253;64174;-45
2023/04/08 00:48:25;;;;;;;17.50;11.80;;;;;;;12.41;58.11;100905.14;106137;1256;65006;-45
2023/04/08 00:50:56;;;;;;;16.90;12.00;;;;;;;12.35;58.51;100905.50;108547;1254;59682;-45
2023/04/08 00:53:44;;;;;;;14.00;10.30;;;;;;;12.39;58.88;100902.86;108624;1253;59703;-45
2023/04/08 00:56:12;;;;;;;14.80;10.20;;;;;;;12.43;59.15;100897.94;108721;1254;65312;-45
2023/04/08 00:58:40;;;;;;;13.50;9.80;;;;;;;12.42;59.57;100898.87;108684;1254;61675;-46
2023/04/08 01:01:16;;;;;;;14.50;10.10;;;;;;;12.42;59.80;100900.14;108440;1253;64757;-45
2023/04/08 01:03:57;;;;;;;14.60;10.80;;;;;;;12.39;60.29;100896.64;108212;1254;59636;-45
2023/04/08 01:06:49;;;;;;;15.40;10.50;;;;;;;12.34;60.90;100896.02;104845;1254;59992;-45
2023/04/08 01:09:23;;;;;;;14.00;10.20;;;;;;;12.18;61.84;100897.86;108269;1253;64968;-46
2023/04/08 01:11:52;;;;;;;12.30;8.80;;;;;;;12.09;62.81;100898.52;108442;1254;62644;-46
2023/04/08 01:14:22;;;;;;;13.90;8.90;;;;;;;12.08;63.50;100897.85;108432;1252;65807;-45
2023/04/08 01:16:54;;;;;;;12.30;8.60;;;;;;;12.09;64.14;100892.70;106263;1252;59703;-45
2023/04/08 01:19:26;;;;;;;13.50;9.30;;;;;;;12.06;64.83;100893.45;108110;1254;59126;-45
2023/04/08 01:21:54;;;;;;;13.90;8.70;;;;;;;12.01;65.21;100891.36;108513;1252;74305;-45
2023/04/08 01:24:26;;;;;;;13.20;9.20;;;;;;;12.01;65.58;100891.59;108354;1254;61664;-45
2023/04/08 01:26:56;;;;;;;14.70;9.90;;;;;;;12.04;65.53;100894.67;108628;1252;63893;-46
2023/04/08 01:29:24;;;;;;;15.20;11.20;;;;;;;12.00;65.85;100897.45;108507;1254;58856;-45
2023/04/08 01:31:52;;;;;;;14.70;11.10;;;;;;;11.97;66.16;100897.86;105640;1254;61887;-46
2023/04/08 01:34:21;;;;;;;16.40;12.70;;;;;;;11.95;66.28;100899.27;106673;1254;65026;-45
2023/04/08 01:36:49;;;;;;;17.20;11.80;;;;;;;11.91;66.39;100898.64;108448;1258;62638;-45
2023/04/08 01:39:17;;;;;;;18.20;14.00;;;;;;;11.96;66.46;100898.98;108475;1253;64603;-45
2023/04/08 01:41:46;;;;;;;21.20;14.40;;;;;;;12.02;66.48;100899.77;107463;1254;59680;-46
2023/04/08 01:44:14;;;;;;;22.30;16.90;;;;;;;12.03;66.45;100898.27;104976;1254;59794;-45
2023/04/08 01:46:43;;;;;;;21.50;16.60;;;;;;;12.02;66.68;100896.42;105151;1254;66065;-45
2023/04/08 01:49:11;;;;;;;21.50;15.80;;;;;;;12.00;66.71;100896.04;105123;1254;65911;-45
2023/04/08 01:51:42;;;;;;;17.30;13.00;;;;;;;11.97;66.96;100894.50;108493;1252;64842;-46
2023/04/08 01:54:10;;;;;;;16.60;11.60;;;;;;;12.02;66.80;100893.04;108111;1253;59385;-45
2023/04/08 01:56:40;;;;;;;14.70;11.60;;;;;;;12.09;66.78;100894.27;104938;1252;59659;-46
2023/04/08 01:59:13;;;;;;;15.90;10.90;;;;;;;12.14;66.81;100891.09;108319;1256;66127;-46
2023/04/08 02:01:43;;;;;;;12.40;10.10;;;;;;;12.16;66.74;100891.08;108584;1253;71118;-51
2023/04/08 02:04:12;;;;;;;15.90;10.10;;;;;;;12.19;66.69;100890.14;108518;1256;66922;-47
2023/04/08 02:06:40;;;;;;;13.40;9.40;;;;;;;12.22;66.34;100888.04;108430;1254;60607;-46
2023/04/08 02:09:08;;;;;;;12.00;9.60;;;;;;;12.23;66.12;100886.69;108439;1256;58765;-46
2023/04/08 02:11:39;;;;;;;11.80;9.00;;;;;;;12.25;66.06;100886.36;108469;1254;66011;-46
2023/04/08 02:14:07;;;;;;;13.90;9.30;;;;;;;12.25;66.04;100885.34;108598;1256;62395;-46
2023/04/08 02:16:41;;;;;;;13.20;9.20;;;;;;;12.21;66.09;100885.29;108611;1254;66511;-47
2023/04/08 02:19:29;;;;;;;13.50;8.90;;;;;;;12.16;66.12;100885.67;106758;1259;59525;-46
2023/04/08 02:22:11;;;;;;;13.40;9.20;;;;;;;12.11;66.21;100887.51;105023;1254;59749;-46
2023/04/08 02:24:40;;;;;;;12.80;9.30;;;;;;;12.12;66.30;100889.90;105040;1259;65449;-46
2023/04/08 02:27:09;;;;;;;13.50;10.10;;;;;;;12.14;66.35;100886.67;104965;1259;62366;-47
2023/04/08 02:29:37;;;;;;;13.10;9.20;;;;;;;12.13;66.44;100888.91;105188;1256;64007;-47
2023/04/08 02:32:07;;;;;;;15.00;8.80;;;;;;;12.04;66.48;100889.40;104964;1254;59886;-47
2023/04/08 02:34:36;;;;;;;12.70;8.80;;;;;;;11.94;66.64;100893.17;108379;1254;59125;-45
2023/04/08 02:37:04;;;;;;;12.70;9.30;;;;;;;11.86;66.94;100893.91;108602;1256;64174;-44
2023/04/08 02:39:33;;;;;;;13.10;9.30;;;;;;;11.88;67.04;100893.26;108348;1253;63121;-45
2023/04/08 02:42:03;;;;;;;13.70;9.40;;;;;;;11.93;67.05;100891.52;107317;1253;63970;-44
2023/04/08 02:44:31;;;;;;;14.40;9.50;;;;;;;11.93;66.97;100886.73;106127;1253;59631;-45
2023/04/08 02:47:01;;;;;;;11.50;8.80;;;;;;;11.91;67.13;100889.02;108467;1259;58854;-44
2023/04/08 02:49:30;;;;;;;12.60;9.50;;;;;;;11.87;67.28;100887.49;108559;1254;65893;-45
2023/04/08 02:52:04;;;;;;;13.10;8.50;;;;;;;11.88;67.31;100886.59;108516;1254;63332;-45
2023/04/08 02:54:35;;;;;;;13.50;9.70;;;;;;;11.93;67.19;100884.83;104624;1254;65042;-52
2023/04/08 02:57:04;;;;;;;12.60;9.70;;;;;;;11.96;67.13;100885.11;108080;1253;58804;-46
2023/04/08 02:59:37;;;;;;;14.00;10.40;;;;;;;11.97;67.04;100885.56;104070;1253;62003;-47
2023/04/08 03:02:07;;;;;;;13.70;9.30;;;;;;;11.92;67.01;100885.74;107582;1254;65441;-46
2023/04/08 03:04:35;;;;;;;12.90;9.30;;;;;;;11.87;67.28;100885.79;108599;1256;62686;-46
2023/04/08 03:07:04;;;;;;;11.40;8.70;;;;;;;11.87;67.27;100885.41;108597;1256;66119;-45
2023/04/08 03:09:43;;;;;;;13.70;10.00;;;;;;;11.90;67.29;100890.27;108642;1252;57675;-45
2023/04/08 03:12:12;;;;;;;15.50;10.40;;;;;;;11.92;67.27;100890.35;106353;1256;59988;-46
2023/04/08 03:14:41;;;;;;;12.90;10.20;;;;;;;11.89;67.45;100893.36;105291;1256;65519;-44
2023/04/08 03:17:13;;;;;;;13.20;10.10;;;;;;;11.84;67.55;100890.02;105187;1256;63620;-45
2023/04/08 03:19:42;;;;;;;17.70;11.70;;;;;;;11.80;67.67;100890.05;105948;1252;63826;-45
2023/04/08 03:22:10;;;;;;;14.80;11.40;;;;;;;11.82;67.64;100893.92;108594;1256;59647;-46
2023/04/08 03:24:38;;;;;;;15.20;10.70;;;;;;;11.84;67.76;100893.70;107761;1254;60533;-45
2023/04/08 03:27:07;;;;;;;13.70;10.00;;;;;;;11.87;67.73;100897.39;108631;1251;66060;-45
2023/04/08 03:29:35;;;;;;;13.10;9.50;;;;;;;11.83;67.95;100904.87;108632;1254;62568;-45
2023/04/08 03:32:05;;;;;;;15.70;11.20;;;;;;;11.82;68.10;100907.07;108702;1256;64966;-45
2023/04/08 03:34:34;;;;;;;14.00;9.00;;;;;;;11.79;68.07;100907.66;108583;1253;58343;-45
2023/04/08 03:37:02;;;;;;;14.80;9.30;;;;;;;11.81;68.00;100910.14;107668;1256;60434;-46
2023/04/08 03:39:30;;;;;;;12.80;9.00;;;;;;;11.84;67.88;100907.09;105138;1256;66183;-45
2023/04/08 03:41:59;;;;;;;13.70;9.60;;;;;;;11.86;67.85;100911.14;105489;1254;62583;-45
2023/04/08 03:44:28;;;;;;;14.40;10.30;;;;;;;11.82;68.10;100908.14;105147;1256;65560;-45
2023/04/08 03:46:56;;;;;;;14.40;9.80;;;;;;;11.82;68.10;100912.86;105159;1254;60460;-47
2023/04/08 03:49:25;;;;;;;13.60;8.70;;;;;;;11.82;68.10;100913.75;105125;1256;60822;-47
2023/04/08 03:51:53;;;;;;;16.30;10.20;;;;;;;11.83;68.03;100915.08;107899;1253;65102;-47
2023/04/08 03:54:21;;;;;;;20.00;13.30;;;;;;;11.87;67.97;100915.80;108110;1254;64937;-44
2023/04/08 03:56:49;;;;;;;22.00;13.60;;;;;;;11.88;68.06;100914.48;107941;1253;64103;-44
2023/04/08 03:59:18;;;;;;;27.20;15.00;;;;;;;11.89;68.13;100912.69;108587;1256;60169;-45
2023/04/08 04:01:46;;;;;;;26.40;15.10;;;;;;;11.89;68.15;100912.66;108575;1254;59868;-45
2023/04/08 04:04:15;;;;;;;25.90;14.20;;;;;;;11.87;68.23;100911.98;108622;1254;65219;-45
2023/04/08 04:06:44;;;;;;;26.10;16.10;;;;;;;11.94;68.09;100912.67;107370;1254;62674;-45
2023/04/08 04:09:14;;;;;;;29.90;17.50;;;;;;;11.99;68.06;100916.49;105203;1256;64698;-44
2023/04/08 04:11:42;;;;;;;29.50;15.70;;;;;;;12.00;68.00;100915.92;105113;1257;61382;-45
2023/04/08 04:14:11;;;;;;;31.60;16.80;;;;;;;11.98;68.18;100916.76;104932;1259;60414;-46
2023/04/08 04:16:39;;;;;;;28.00;17.00;;;;;;;11.97;68.28;100916.14;108523;1254;66159;-45
2023/04/08 04:19:08;;;;;;;26.90;13.80;;;;;;;12.00;68.23;100916.08;108606;1256;63115;-46
2023/04/08 04:21:42;;;;;;;28.20;15.80;;;;;;;12.06;68.31;100921.21;108624;1252;65071;-45
2023/04/08 04:24:10;;;;;;;31.40;17.60;;;;;;;12.15;68.32;100922.68;108595;1253;60364;-46
2023/04/08 04:26:41;;;;;;;30.30;18.60;;;;;;;12.20;68.15;100921.74;108647;1253;60350;-46
2023/04/08 04:29:09;;;;;;;33.60;19.00;;;;;;;12.21;68.02;100923.08;106374;1255;67129;-45
2023/04/08 04:31:38;;;;;;;33.50;18.50;;;;;;;12.19;68.00;100922.34;105691;1256;61981;-45
2023/04/08 04:34:08;;;;;;;34.30;18.40;;;;;;;12.15;68.16;100922.89;108542;1253;64746;-46
2023/04/08 04:36:38;;;;;;;31.30;18.40;;;;;;;12.17;68.13;100930.12;108554;1254;60921;-46
2023/04/08 04:39:07;;;;;;;30.20;16.90;;;;;;;12.21;68.09;100935.18;108571;1256;58909;-49
2023/04/08 04:41:39;;;;;;;32.20;18.60;;;;;;;12.26;68.19;100937.67;108583;1256;66184;-45
2023/04/08 04:44:07;;;;;;;31.60;18.70;;;;;;;12.28;68.33;100936.64;108575;1254;62775;-46
2023/04/08 04:46:42;;;;;;;31.20;17.80;;;;;;;12.28;68.46;100937.48;108595;1254;67010;-46
2023/04/08 04:49:10;;;;;;;30.60;19.20;;;;;;;12.30;68.41;100941.73;108535;1254;58325;-45
2023/04/08 04:51:38;;;;;;;26.10;16.40;;;;;;;12.34;68.28;100941.79;108619;1253;59632;-46
2023/04/08 04:54:08;;;;;;;26.10;14.60;;;;;;;12.40;68.15;100940.78;108655;1253;65092;-46
2023/04/08 04:56:36;;;;;;;24.20;13.50;;;;;;;12.43;68.10;100941.91;108632;1254;63056;-45
2023/04/08 04:59:04;;;;;;;22.70;14.10;;;;;;;12.45;68.22;100952.83;108679;1256;65323;-46
2023/04/08 05:01:34;;;;;;;20.70;13.40;;;;;;;12.45;68.27;100957.05;108543;1257;59808;-45
2023/04/08 05:04:03;;;;;;;20.30;12.80;;;;;;;12.44;68.39;100956.25;108615;1254;59699;-46
2023/04/08 05:06:31;;;;;;;20.80;13.30;;;;;;;12.45;68.36;100949.71;108558;1254;65411;-46
2023/04/08 05:09:00;;;;;;;18.80;12.90;;;;;;;12.55;68.08;100952.80;108579;1251;62814;-46
2023/04/08 05:11:29;;;;;;;17.90;12.70;;;;;;;12.63;67.85;100952.71;108544;1254;65310;-46
2023/04/08 05:14:03;;;;;;;21.50;14.30;;;;;;;12.67;67.83;100956.13;108624;1256;59744;-46
2023/04/08 05:16:32;;;;;;;19.00;13.40;;;;;;;12.65;67.81;100955.70;108604;1254;58755;-45
2023/04/08 05:19:00;;;;;;;16.70;12.80;;;;;;;12.66;67.96;100960.36;108576;1253;64929;-46
2023/04/08 05:21:31;;;;;;;16.40;12.10;;;;;;;12.72;67.75;100960.92;108554;1254;63488;-46
2023/04/08 05:24:00;;;;;;;16.70;11.80;;;;;;;12.79;67.64;100961.64;108501;1254;64978;-45
2023/04/08 05:26:28;;;;;;;16.30;11.50;;;;;;;12.80;67.50;100962.22;108522;1256;59367;-46
2023/04/08 05:28:59;;;;;;;16.80;12.20;;;;;;;12.76;67.59;100960.95;108540;1253;58742;-45
2023/04/08 05:31:27;;;;;;;17.00;11.50;;;;;;;12.74;67.63;100956.90;108559;1254;66678;-45
2023/04/08 05:33:55;;;;;;;14.60;11.10;;;;;;;12.70;67.62;100956.90;108582;1254;65929;-46
2023/04/08 05:36:26;;;;;;;14.30;9.80;;;;;;;12.70;67.59;100956.69;106487;1254;64903;-46
2023/04/08 05:38:54;;;;;;;16.20;11.20;;;;;;;12.72;67.76;100955.98;108562;1254;60210;-46
2023/04/08 05:41:24;;;;;;;14.40;10.50;;;;;;;12.74;67.97;100961.15;106535;1253;62834;-45
2023/04/08 05:43:52;;;;;;;16.60;11.10;;;;;;;12.76;68.10;100963.40;105211;1254;66944;-45
2023/04/08 05:46:20;;;;;;;17.10;10.90;;;;;;;12.81;68.06;100964.99;105110;1254;63183;-44
2023/04/08 05:48:49;;;;;;;15.50;10.30;;;;;;;12.86;68.02;100966.50;108615;1252;66062;-45
2023/04/08 05:51:18;;;;;;;16.00;10.60;;;;;;;12.99;67.59;100967.05;108541;1256;59880;-49
2023/04/08 05:53:47;;;;;;;16.60;11.10;;;;;;;13.07;67.31;100968.00;108632;1254;58821;-45
2023/04/08 05:56:15;;;;;;;14.60;11.00;;;;;;;13.13;67.13;100965.73;108742;1256;64972;-45
2023/04/08 05:58:45;;;;;;;14.20;9.80;;;;;;;13.15;67.00;100966.44;108626;1256;63404;-45
2023/04/08 06:01:13;;;;;;;14.80;11.00;;;;;;;13.12;66.95;100968.25;105936;1256;65082;-45
2023/04/08 06:03:41;;;;;;;14.00;9.20;;;;;;;13.09;66.95;100970.64;105164;1257;60682;-45
2023/04/08 06:06:13;;;;;;;14.40;10.00;;;;;;;13.11;66.88;100972.94;105112;1256;60968;-46
2023/04/08 06:08:42;;;;;;;12.00;9.20;;;;;;;13.16;66.73;100976.25;108545;1256;65160;-45
2023/04/08 06:11:14;;;;;;;15.20;10.10;;;;;;;13.17;66.65;100977.79;108336;1254;61662;-46
2023/04/08 06:13:44;;;;;;;15.20;10.90;;;;;;;13.14;66.67;100978.89;104464;1255;65704;-46
2023/04/08 06:16:13;;;;;;;16.90;11.40;;;;;;;13.12;66.76;100981.16;108551;1256;58864;-46
2023/04/08 06:18:43;;;;;;;14.30;9.60;;;;;;;13.13;66.75;100982.14;106283;1256;60530;-44
2023/04/08 06:21:11;;;;;;;16.10;10.70;;;;;;;13.20;66.58;100982.42;105354;1254;67597;-44
2023/04/08 06:23:39;;;;;;;14.70;10.30;;;;;;;13.31;66.55;100979.45;107838;1257;61936;-47
2023/04/08 06:26:08;;;;;;;15.40;10.10;;;;;;;13.34;66.28;100975.89;105953;1254;65076;-47
2023/04/08 06:28:36;;;;;;;14.70;10.30;;;;;;;13.37;66.48;100977.05;108601;1256;60426;-45
2023/04/08 06:31:05;;;;;;;14.50;10.20;;;;;;;13.43;66.37;100977.77;108544;1254;58848;-45
2023/04/08 06:33:34;;;;;;;15.10;9.90;;;;;;;13.46;66.20;100978.80;108573;1254;65063;-45
2023/04/08 06:36:05;;;;;;;12.80;9.20;;;;;;;13.47;66.03;100981.69;108595;1254;62705;-45
2023/04/08 06:38:34;;;;;;;13.10;8.80;;;;;;;13.56;65.82;100984.09;108597;1253;64211;-45
2023/04/08 06:41:05;;;;;;;15.50;9.60;;;;;;;13.68;65.53;100985.73;108553;1253;58814;-45
2023/04/08 06:43:36;;;;;;;13.10;8.80;;;;;;;13.73;65.27;100989.59;108613;1252;58956;-46
2023/04/08 06:46:05;;;;;;;13.60;9.40;;;;;;;13.72;65.23;100991.98;108517;1252;66889;-46
2023/04/08 06:48:34;;;;;;;16.20;9.70;;;;;;;13.70;65.09;100993.54;108603;1254;70682;-46
2023/04/08 06:51:02;;;;;;;14.70;10.10;;;;;;;13.71;65.08;100995.73;108584;1256;64753;-46
2023/04/08 06:53:32;;;;;;;13.60;8.50;;;;;;;13.77;64.89;100994.35;106132;1256;60024;-46
2023/04/08 06:56:00;;;;;;;14.90;9.00;;;;;;;13.85;64.73;100997.55;105534;1256;60594;-45
2023/04/08 06:58:30;;;;;;;14.50;9.50;;;;;;;13.95;64.62;101000.63;105162;1256;66123;-45
2023/04/08 07:00:58;;;;;;;14.50;9.50;;;;;;;13.99;64.32;100995.81;105243;1255;63275;-45
2023/04/08 07:03:28;;;;;;;15.80;9.00;;;;;;;14.01;64.34;100996.62;105182;1267;64552;-46
2023/04/08 07:05:56;;;;;;;14.30;8.70;;;;;;;14.04;64.52;100996.67;107566;1256;59374;-45
2023/04/08 07:08:25;;;;;;;15.50;8.80;;;;;;;14.10;64.37;100998.13;106263;1254;60428;-46
2023/04/08 07:10:53;;;;;;;14.30;8.50;;;;;;;14.16;64.42;100999.88;105275;1253;65799;-46
2023/04/08 07:13:22;;;;;;;12.00;7.90;;;;;;;14.26;64.21;100999.92;108620;1256;62658;-46
2023/04/08 07:15:51;;;;;;;13.90;8.50;;;;;;;14.42;63.64;101004.33;108617;1254;63912;-46
2023/04/08 07:18:22;;;;;;;12.80;8.50;;;;;;;14.54;63.30;101007.41;105339;1254;60448;-46
2023/04/08 07:20:52;;;;;;;13.20;8.60;;;;;;;14.61;63.23;101007.30;108109;1256;60212;-46
2023/04/08 07:23:21;;;;;;;10.40;7.10;;;;;;;14.69;62.79;101012.52;108621;1254;67818;-46
2023/04/08 07:25:50;;;;;;;10.10;7.10;;;;;;;14.72;62.53;101011.91;108509;1256;63481;-46
2023/04/08 07:28:19;;;;;;;12.50;7.70;;;;;;;14.73;62.64;101016.95;108572;1254;64926;-46
2023/04/08 07:30:48;;;;;;;11.90;6.20;;;;;;;14.84;62.57;101014.71;108572;1255;60604;-46
2023/04/08 07:33:16;;;;;;;13.70;6.40;;;;;;;14.98;62.27;101011.33;106356;1256;59240;-46
2023/04/08 07:35:47;;;;;;;9.00;5.70;;;;;;;15.11;61.56;101008.83;105068;1257;64846;-46
2023/04/08 07:38:15;;;;;;;11.70;5.60;;;;;;;15.19;60.94;101010.68;108199;1256;61691;-46
2023/04/08 07:40:44;;;;;;;12.00;5.50;;;;;;;15.26;60.63;101011.67;105236;1257;64016;-45
2023/04/08 07:43:12;;;;;;;10.70;5.50;;;;;;;15.34;60.35;101007.98;106318;1257;60593;-46
2023/04/08 07:45:40;;;;;;;18.20;5.40;;;;;;;15.40;60.18;101009.19;108609;1251;60225;-46
2023/04/08 07:48:09;;;;;;;11.60;5.20;;;;;;;15.42;60.07;101010.08;108581;1254;66230;-46
2023/04/08 07:50:37;;;;;;;11.10;6.10;;;;;;;15.47;59.88;101015.67;108593;1254;62127;-46
2023/04/08 07:53:27;;;;;;;13.00;5.50;;;;;;;15.57;59.44;101010.28;105501;1260;65328;-47
2023/04/08 07:55:55;;;;;;;10.80;5.10;;;;;;;15.61;59.40;101005.88;105126;1254;61632;-47
2023/04/08 07:58:24;;;;;;;13.20;4.80;;;;;;;15.73;59.25;101003.05;105142;1256;61599;-47
2023/04/08 08:00:53;;;;;;;13.90;4.90;;;;;;;15.88;58.75;101005.20;108588;1256;66053;-47
2023/04/08 08:03:22;;;;;;;10.80;4.90;;;;;;;16.01;58.54;101002.41;105915;1257;61477;-47
2023/04/08 08:05:50;;;;;;;10.50;4.90;;;;;;;16.13;58.11;101000.40;107009;1256;66968;-46
2023/04/08 08:08:20;;;;;;;11.80;4.90;;;;;;;16.20;57.51;100999.80;105076;1266;60591;-56
2023/04/08 08:10:49;;;;;;;9.20;4.90;;;;;;;16.23;57.27;101000.06;105086;1256;59579;-55
2023/04/08 08:13:20;;;;;;;12.90;5.90;;;;;;;16.21;57.03;100998.59;108506;1252;66269;-55
2023/04/08 08:15:55;;;;;;;8.60;5.30;;;;;;;16.19;56.96;100996.66;108567;1254;62437;-55
2023/04/08 08:18:24;;;;;;;14.70;5.40;;;;;;;16.20;57.08;100996.05;108610;1256;63905;-55
2023/04/08 08:20:54;;;;;;;13.70;5.50;;;;;;;16.18;56.85;100994.48;108557;1254;61618;-55
2023/04/08 08:23:22;;;;;;;9.30;5.00;;;;;;;16.16;56.99;100994.77;108568;1256;60543;-56
2023/04/08 08:25:58;;;;;;;12.30;5.40;;;;;;;16.20;57.06;100996.04;108633;1256;66409;-55
2023/04/08 08:28:32;;;;;;;9.10;5.70;;;;;;;16.24;56.81;100996.59;108687;1254;62886;-55
2023/04/08 08:31:01;;;;;;;9.20;4.80;;;;;;;16.24;56.76;100996.20;108595;1256;65087;-56
2023/04/08 08:33:29;;;;;;;9.80;4.60;;;;;;;16.29;56.90;100996.58;108637;1255;59307;-55
2023/04/08 08:35:58;;;;;;;9.10;4.30;;;;;;;16.45;56.77;100995.45;108286;1253;60949;-55
2023/04/08 08:38:26;;;;;;;11.40;5.10;;;;;;;16.59;56.22;100992.18;104983;1257;66187;-55
2023/04/08 08:40:55;;;;;;;9.70;5.10;;;;;;;16.64;55.45;100992.73;108083;1253;63041;-56
2023/04/08 08:43:24;;;;;;;12.00;5.10;;;;;;;16.67;55.38;100991.43;108524;1257;63873;-56
2023/04/08 08:45:53;;;;;;;8.70;4.60;;;;;;;16.67;54.96;100992.10;108590;1253;59902;-54
2023/04/08 08:48:22;;;;;;;11.90;5.70;;;;;;;16.65;55.23;100993.88;108570;1253;59988;-55
2023/04/08 08:50:50;;;;;;;14.40;5.80;;;;;;;16.65;55.06;100993.71;108684;1256;66056;-55
2023/04/08 08:53:19;;;;;;;11.50;5.50;;;;;;;16.65;55.08;100993.21;108621;1254;64644;-55
2023/04/08 08:55:48;;;;;;;11.10;5.10;;;;;;;16.66;55.02;100995.61;108726;1256;65095;-55
2023/04/08 08:58:21;;;;;;;12.60;5.40;;;;;;;16.68;54.65;100995.60;108033;1254;59352;-54
2023/04/08 09:00:49;;;;;;;13.60;5.40;;;;;;;16.63;54.47;100994.67;106821;1256;60562;-54
2023/04/08 09:03:19;;;;;;;11.30;4.80;;;;;;;16.59;54.71;100993.60;105050;1260;65977;-54
2023/04/08 09:05:54;;;;;;;12.40;5.30;;;;;;;16.60;54.94;100995.45;108582;1255;62145;-54
2023/04/08 09:08:35;;;;;;;12.50;5.80;;;;;;;16.64;54.96;100998.23;108613;1254;65877;-55
2023/04/08 09:11:14;;;;;;;12.10;5.30;;;;;;;16.71;55.16;100997.23;106718;1254;61632;-54
2023/04/08 09:13:45;;;;;;;9.60;4.80;;;;;;;16.81;55.14;100997.52;105128;1257;61529;-55
2023/04/08 09:16:17;;;;;;;9.90;4.80;;;;;;;16.94;55.32;100993.94;108523;1254;67170;-55
2023/04/08 09:18:47;;;;;;;14.00;4.80;;;;;;;17.17;54.51;100991.19;106789;1257;61790;-54
2023/04/08 09:21:17;;;;;;;11.20;4.80;;;;;;;17.35;54.00;100990.63;108473;1255;65742;-55
2023/04/08 09:23:47;;;;;;;12.50;5.10;;;;;;;17.51;53.71;100988.77;108524;1257;60058;-55
2023/04/08 09:26:26;;;;;;;17.30;5.70;;;;;;;17.66;53.65;100987.83;108630;1256;58860;-55
2023/04/08 09:29:04;;;;;;;8.10;4.40;;;;;;;17.82;53.20;100991.13;108626;1254;66710;-55
2023/04/08 09:31:59;;;;;;;9.50;5.00;;;;;;;17.96;52.24;100991.14;108571;1254;62774;-55
2023/04/08 09:34:31;;;;;;;12.40;4.80;;;;;;;18.00;51.75;100991.77;108012;1256;65107;-56
2023/04/08 09:36:59;;;;;;;14.20;4.80;;;;;;;18.03;51.83;100992.48;108587;1254;58754;-55
2023/04/08 09:39:29;;;;;;;11.00;5.00;;;;;;;18.14;51.91;100993.95;108425;1254;59667;-55
2023/04/08 09:41:59;;;;;;;10.00;4.20;;;;;;;18.28;51.65;100996.71;108534;1254;64874;-55
2023/04/08 09:44:29;;;;;;;13.00;4.60;;;;;;;18.37;50.47;101002.40;108548;1254;62903;-55
2023/04/08 09:47:10;;;;;;;10.30;4.30;;;;;;;18.41;50.47;101002.24;108550;1253;67025;-55
2023/04/08 09:49:47;;;;;;;13.50;4.60;;;;;;;18.48;50.58;101004.88;108479;1257;58409;-55
2023/04/08 09:52:20;;;;;;;15.10;4.50;;;;;;;18.56;50.07;101004.17;108391;1254;60338;-55
2023/04/08 09:55:02;;;;;;;12.30;4.70;;;;;;;18.65;49.88;101000.02;108708;1254;66251;-56
2023/04/08 09:58:00;;;;;;;15.20;4.30;;;;;;;18.80;49.57;101002.64;105258;1254;62247;-54
2023/04/08 10:00:42;;;;;;;9.00;4.10;;;;;;;18.96;49.42;101006.09;105067;1255;64820;-55
2023/04/08 10:03:19;;;;;;;13.10;4.40;;;;;;;19.09;48.03;101004.16;108593;1254;58628;-55
2023/04/08 10:05:48;;;;;;;13.20;4.50;;;;;;;19.14;47.25;100999.80;108496;1255;59708;-56
2023/04/08 10:08:17;;;;;;;11.90;4.30;;;;;;;19.10;46.45;101001.63;107385;1254;64916;-54
2023/04/08 10:10:46;;;;;;;12.10;5.10;;;;;;;19.04;47.21;101001.11;105019;1261;62893;-54
2023/04/08 10:13:22;;;;;;;11.10;4.40;;;;;;;19.12;47.18;101000.36;108549;1255;65533;-56
2023/04/08 10:15:51;;;;;;;12.50;4.30;;;;;;;19.23;46.82;101001.65;108424;1254;59020;-54
2023/04/08 10:18:20;;;;;;;12.60;4.30;;;;;;;19.37;46.82;100998.33;108307;1254;59804;-54
2023/04/08 10:20:50;;;;;;;17.60;4.70;;;;;;;19.61;46.68;100999.16;108553;1254;74978;-54
2023/04/08 10:23:19;;;;;;;12.30;4.10;;;;;;;19.80;45.98;100997.47;108540;1254;62641;-54
2023/04/08 10:25:48;;;;;;;8.10;4.50;;;;;;;19.96;45.67;100997.00;108390;1253;65219;-54
2023/04/08 10:28:19;;;;;;;13.70;3.80;;;;;;;20.12;44.99;100996.46;108557;1253;60181;-54
2023/04/08 10:30:48;;;;;;;13.60;4.50;;;;;;;20.24;44.52;100999.11;106347;1257;61134;-54
2023/04/08 10:33:24;;;;;;;10.10;4.20;;;;;;;20.30;44.40;100999.13;108661;1253;66517;-55
2023/04/08 10:35:53;;;;;;;12.90;4.20;;;;;;;20.34;44.51;101000.55;108586;1254;62685;-56
2023/04/08 10:38:22;;;;;;;12.90;4.70;;;;;;;20.40;44.16;100999.53;108509;1257;65228;-55
2023/04/08 10:40:50;;;;;;;12.30;4.30;;;;;;;20.41;43.35;100998.05;108585;1253;60465;-55
2023/04/08 10:43:18;;;;;;;8.30;3.60;;;;;;;20.34;42.81;100997.91;107177;1257;60475;-55
2023/04/08 10:45:50;;;;;;;15.60;4.20;;;;;;;20.30;42.59;101001.42;105135;1257;67429;-54
2023/04/08 10:48:23;;;;;;;12.70;4.20;;;;;;;20.33;42.53;100998.19;108600;1254;62760;-55
2023/04/08 10:50:53;;;;;;;9.40;3.90;;;;;;;20.40;42.38;100993.52;108532;1253;65101;-54
2023/04/08 10:53:30;;;;;;;7.20;3.50;;;;;;;20.48;41.11;100993.15;108621;1254;59570;-54
2023/04/08 10:56:14;;;;;;;10.40;3.60;;;;;;;20.52;40.48;100995.17;104971;1254;60370;-53
2023/04/08 10:58:49;;;;;;;9.90;3.60;;;;;;;20.51;40.44;100992.06;108588;1252;66864;-56
2023/04/08 11:01:17;;;;;;;8.50;3.90;;;;;;;20.51;40.59;100989.63;108574;1254;61729;-53
2023/04/08 11:03:46;;;;;;;7.90;4.30;;;;;;;20.52;40.46;100988.95;108410;1254;66337;-55
2023/04/08 11:06:14;;;;;;;16.00;5.00;;;;;;;20.50;40.63;100983.42;103998;1256;62006;-55
2023/04/08 11:08:44;;;;;;;9.10;3.40;;;;;;;20.44;40.05;100981.64;104071;1257;61239;-55
2023/04/08 11:11:12;;;;;;;10.90;4.00;;;;;;;20.35;39.46;100978.97;108410;1254;68334;-55
2023/04/08 11:13:44;;;;;;;13.40;4.00;;;;;;;20.25;40.14;100980.27;108632;1254;63171;-55
2023/04/08 11:16:21;;;;;;;10.70;4.40;;;;;;;20.16;40.57;100981.02;108408;1254;65900;-55
2023/04/08 11:18:50;;;;;;;8.80;3.90;;;;;;;20.11;40.65;100982.38;108537;1254;59388;-55
2023/04/08 11:21:22;;;;;;;13.40;4.60;;;;;;;20.06;40.88;100982.89;108325;1254;391241;-56